Latest Coastal Weather Observations for Gold Coast Seaway

IDQ60701

Issued at 1:03 pm EST Thursday 12 December 2019 (issued every 10 minutes, with the page automatically refreshed every 10 minutes)

About coastal observations | Map of coastal stations | Coastal observations for QLD | Marine services | Other Formats
Station Details ID: 040764 Name: GOLD COAST SEAWAY Lat: -27.94 Lon: 153.43 Height: 2.98 m
Data from the previous 72 hours. | See also: Recent months at Gold Coast Seaway
Date/Time
EST
Wind Sea
Height
m
Swell Vis
km
Cloud Weather Temp
°C
Press
hPa
Rain since
9am
mm
Dir  Spd
kts
Gust
kts
Height
m
Period
s
Dir
12/01:00pm NE 12 14 - - - - - - - 28.4 1009.9 0.0
12/12:30pm NE 14 15 - - - - - - - 28.0 1010.1 0.0
12/12:00pm NE 13 14 - - - - - - - 26.8 1010.5 0.0
12/11:30am ENE 9 9 - - - - - - - 27.7 1010.8 0.0
12/11:00am ENE 7 8 - - - - - - - 26.7 1011.2 0.0
12/10:30am ENE 9 9 - - - - - - - 26.7 1011.2 0.0
12/10:00am ENE 6 8 - - - - - - - 26.1 1011.5 0.0
12/09:30am E 8 9 - - - - - - - 25.6 1011.5 0.0
12/09:00am E 8 8 - - - - - - - 25.1 1011.7 1.8
12/08:30am SE 5 6 - - - - - - - 25.6 1011.7 1.8
12/08:00am ESE 2 6 - - - - - - - 25.3 1011.5 1.8
12/07:30am ENE 4 5 - - - - - - - 24.1 1011.5 1.8
12/07:00am NE 5 6 - - - - - - - 24.5 1011.2 1.8
12/06:30am N 4 5 - - - - - - - 23.5 1011.0 1.8
12/06:00am NW 1 4 - - - - - - - 22.9 1010.6 1.8
12/05:30am CALM 0 3 - - - - - - - 22.8 1010.2 1.8
12/05:00am WNW 9 12 - - - - - - - 23.1 1009.8 1.8
12/04:30am NW 9 13 - - - - - - - 23.4 1009.6 1.8
12/04:00am NW 12 16 - - - - - - - 23.6 1009.2 1.8
12/03:30am NW 8 10 - - - - - - - 23.5 1009.2 1.8
12/03:00am NNW 8 13 - - - - - - - 23.8 1008.7 1.8
12/02:30am NNW 8 14 - - - - - - - 23.7 1008.3 1.8
12/02:00am N 21 29 - - - - - - - 22.7 1008.6 1.8
12/01:45am NNE 25 32 - - - - - - - 22.7 1007.0 1.8
12/01:30am NNE 21 25 - - - - - - - 22.7 1009.0 1.8
12/01:28am NNE 20 24 - - - - - - - 22.7 1009.1 1.8
12/01:00am N 15 18 - - - - - - - 22.4 1011.1 1.6
12/12:30am N 11 14 - - - - - - - 21.8 1012.4 1.6
12/12:00am N 8 12 - - - - - - - 21.8 1013.5 1.4
 
Date/Time
EST
Wind Sea
Height
m
Swell Vis
km
Cloud Weather Temp
°C
Press
hPa
Rain since
9am
mm
Dir  Spd
kts
Gust
kts
Height
m
Period
s
Dir
11/11:30pm NNE 5 6 - - - - - - - 22.5 1014.2 1.4
11/11:00pm SE 3 5 - - - - - - - 22.2 1014.7 1.4
11/10:30pm SE 13 17 - - - - - - - 22.7 1015.1 1.0
11/10:20pm SE 12 20 - - - - - - - 22.9 1015.5 0.2
11/10:00pm SSE 8 9 - - - - - - - 24.4 1015.6 0.0
11/09:30pm E 5 7 - - - - - - - 24.5 1015.0 0.0
11/09:00pm NW 3 6 - - - - - - - 24.3 1015.1 0.0
11/08:30pm CALM 0 0 - - - - - - - 24.0 1013.7 0.0
11/08:00pm N 8 9 - - - - - - - 24.2 1012.9 0.0
11/07:30pm N 9 10 - - - - - - - 24.3 1012.5 0.0
11/07:00pm N 10 13 - - - - - - - 24.4 1011.7 0.0
11/06:30pm N 10 12 - - - - - - - 24.6 1011.5 0.0
11/06:00pm NNE 14 17 - - - - - - - 25.0 1011.4 0.0
11/05:30pm NNE 15 17 - - - - - - - 25.3 1010.6 0.0
11/05:00pm NNE 14 15 - - - - - - - 25.8 1010.2 0.0
11/04:30pm NNE 15 16 - - - - - - - 26.1 1009.4 0.0
11/04:00pm NNE 14 16 - - - - - - - 26.5 1009.8 0.0
11/03:30pm NNE 16 17 - - - - - - - 26.9 1009.9 0.0
11/03:00pm NNE 16 18 - - - - - - - 28.2 1010.0 0.0
11/02:30pm NNE 16 19 - - - - - - - 28.3 1010.4 0.0
11/02:00pm NNE 17 18 - - - - - - - 28.8 1010.8 0.0
11/01:30pm NE 15 17 - - - - - - - 28.8 1010.9 0.0
11/01:00pm NNE 13 15 - - - - - - - 29.0 1011.3 0.0
11/12:30pm NNE 14 15 - - - - - - - 28.9 1011.5 0.0
11/12:00pm NNE 14 15 - - - - - - - 28.5 1011.7 0.0
11/11:30am NNE 13 15 - - - - - - - 28.8 1012.0 0.0
11/11:00am NNE 15 16 - - - - - - - 28.8 1012.2 0.0
11/10:30am NNE 13 15 - - - - - - - 28.7 1012.4 0.0
11/10:00am NNE 13 15 - - - - - - - 28.4 1012.6 0.0
11/09:30am NNE 10 13 - - - - - - - 27.2 1013.1 0.0
11/09:00am N 8 10 - - - - - - - 26.7 1013.4 0.0
11/08:30am NNE 8 9 - - - - - - - 26.1 1013.6 0.0
11/08:00am NNE 8 10 - - - - - - - 26.1 1014.0 0.0
11/07:30am ENE 6 8 - - - - - - - 25.2 1014.2 0.0
11/07:00am E 4 5 - - - - - - - 24.7 1014.3 0.0
11/06:30am SSE 4 5 - - - - - - - 24.7 1014.4 0.0
11/06:00am W 6 8 - - - - - - - 24.3 1014.1 0.0
11/05:30am NW 5 5 - - - - - - - 23.9 1013.2 0.0
11/05:00am NW 6 7 - - - - - - - 24.0 1012.6 0.0
11/04:30am NNW 7 10 - - - - - - - 24.2 1012.1 0.0
11/04:00am NNW 8 11 - - - - - - - 24.5 1011.8 0.0
11/03:30am NW 9 13 - - - - - - - 24.6 1011.8 0.0
11/03:00am WNW 6 8 - - - - - - - 24.6 1011.9 0.0
11/02:30am NW 9 12 - - - - - - - 24.8 1011.5 0.0
11/02:00am NW 9 14 - - - - - - - 24.6 1011.6 0.0
11/01:30am N 17 24 - - - - - - - 24.0 1011.1 0.0
11/01:00am N 17 19 - - - - - - - 24.1 1011.2 0.0
11/12:30am N 15 18 - - - - - - - 24.3 1012.5 0.0
11/12:00am N 10 12 - - - - - - - 24.3 1014.1 0.0
 
Date/Time
EST
Wind Sea
Height
m
Swell Vis
km
Cloud Weather Temp
°C
Press
hPa
Rain since
9am
mm
Dir  Spd
kts
Gust
kts
Height
m
Period
s
Dir
10/11:30pm N 7 9 - - - - - - - 24.5 1015.1 0.0
10/11:00pm N 8 10 - - - - - - - 24.8 1015.3 0.0
10/10:30pm N 4 6 - - - - - - - 25.0 1016.0 0.0
10/10:00pm SSW 7 13 - - - - - - - 24.8 1017.3 0.0
10/09:30pm NNW 6 7 - - - - - - - 24.2 1015.6 0.0
10/09:00pm N 5 7 - - - - - - - 24.1 1014.8 0.0
10/08:30pm N 7 9 - - - - - - - 24.3 1014.7 0.0
10/08:00pm N 8 10 - - - - - - - 24.4 1014.2 0.0
10/07:30pm N 10 11 - - - - - - - 24.6 1013.8 0.0
10/07:00pm N 10 12 - - - - - - - 24.7 1013.9 0.0
10/06:30pm N 13 15 - - - - - - - 25.0 1013.5 0.0
10/06:00pm N 15 17 - - - - - - - 25.2 1013.1 0.0
10/05:30pm N 16 18 - - - - - - - 25.7 1012.9 0.0
10/05:00pm N 16 18 - - - - - - - 26.1 1012.6 0.0
10/04:30pm NNE 17 20 - - - - - - - 26.5 1012.4 0.0
10/04:00pm NNE 18 20 - - - - - - - 26.6 1012.5 0.0
10/03:30pm NNE 18 21 - - - - - - - 27.5 1012.8 0.0
10/03:00pm NNE 17 21 - - - - - - - 27.8 1013.2 0.0
10/02:30pm NNE 18 20 - - - - - - - 28.3 1013.5 0.0
10/02:00pm NNE 17 20 - - - - - - - 28.8 1013.8 0.0
10/01:30pm NNE 18 20 - - - - - - - 28.9 1014.2 0.0
10/01:00pm NNE 17 19 - - - - - - - 29.1 1014.7 0.0
10/12:30pm NNE 17 19 - - - - - - - 28.7 1015.1 0.0
10/12:00pm NE 16 18 - - - - - - - 28.9 1015.6 0.0
10/11:30am NE 14 16 - - - - - - - 28.0 1015.9 0.0
10/11:00am NE 13 16 - - - - - - - 28.7 1016.5 0.0
10/10:30am NNW 8 14 - - - - - - - 30.0 1017.0 0.0
10/10:00am NNW 9 13 - - - - - - - 28.8 1017.3 0.0
10/09:30am NW 10 12 - - - - - - - 27.7 1017.6 0.0
10/09:00am NNW 9 15 - - - - - - - 27.6 1017.6 0.0
10/08:30am NNW 8 14 - - - - - - - 27.1 1017.8 0.0
10/08:00am N 7 9 - - - - - - - 26.1 1017.8 0.0
10/07:30am N 6 8 - - - - - - - 25.4 1017.9 0.0
10/07:00am WNW 1 3 - - - - - - - 24.5 1017.9 0.0
10/06:30am WNW 2 4 - - - - - - - 23.6 1017.9 0.0
10/06:00am CALM 0 0 - - - - - - - 23.1 1017.9 0.0
10/05:30am CALM 0 0 - - - - - - - 22.3 1017.7 0.0
10/05:00am WNW 3 4 - - - - - - - 21.5 1017.6 0.0
10/04:30am WNW 2 4 - - - - - - - 21.4 1017.5 0.0
10/04:00am CALM 0 0 - - - - - - - 21.6 1017.4 0.0
10/03:30am CALM 0 0 - - - - - - - 21.5 1017.3 0.0
10/03:00am NNW 1 3 - - - - - - - 21.6 1017.2 0.0
10/02:30am NNW 1 4 - - - - - - - 22.1 1017.2 0.0
10/02:00am CALM 0 0 - - - - - - - 22.2 1017.4 0.0
10/01:30am CALM 0 0 - - - - - - - 22.7 1017.6 0.0
10/01:00am CALM 0 0 - - - - - - - 22.1 1017.9 0.0
10/12:30am CALM 0 0 - - - - - - - 22.7 1018.2 0.0
10/12:00am CALM 0 0 - - - - - - - 23.3 1018.5 0.0
 
Date/Time
EST
Wind Sea
Height
m
Swell Vis
km
Cloud Weather Temp
°C
Press
hPa
Rain since
9am
mm
Dir  Spd
kts
Gust
kts
Height
m
Period
s
Dir
09/11:30pm NNW 3 4 - - - - - - - 23.4 1018.9 0.0
09/11:00pm CALM 0 0 - - - - - - - 23.4 1019.1 0.0
09/10:30pm CALM 0 0 - - - - - - - 24.0 1019.3 0.0
09/10:00pm NNW 3 4 - - - - - - - 24.0 1019.6 0.0
09/09:30pm N 4 5 - - - - - - - 24.0 1019.7 0.0
09/09:00pm NNE 7 8 - - - - - - - 24.2 1019.6 0.0
09/08:30pm NE 7 8 - - - - - - - 24.4 1019.6 0.0
09/08:00pm NE 8 9 - - - - - - - 24.5 1019.5 0.0
09/07:30pm NE 6 7 - - - - - - - 24.6 1019.4 0.0
09/07:00pm NE 6 7 - - - - - - - 24.7 1019.3 0.0
09/06:30pm ENE 5 6 - - - - - - - 24.9 1019.2 0.0
09/06:00pm E 8 9 - - - - - - - 25.0 1019.0 0.0
09/05:30pm E 9 11 - - - - - - - 25.2 1018.8 0.0
09/05:00pm E 10 11 - - - - - - - 25.4 1018.7 0.0
09/04:30pm ESE 9 10 - - - - - - - 25.8 1018.8 0.0
09/04:00pm ESE 9 11 - - - - - - - 26.1 1018.9 0.0
09/03:30pm ESE 9 11 - - - - - - - 26.6 1019.0 0.0
09/03:00pm ESE 11 13 - - - - - - - 27.3 1019.1 0.0
09/02:30pm ESE 11 12 - - - - - - - 27.2 1019.5 0.0
09/02:00pm ESE 11 12 - - - - - - - 26.7 1019.9 0.0
09/01:30pm ESE 12 14 - - - - - - - 27.2 1020.0 0.0

Other formats

Comma delimited format used in spreadsheet applications
http://www.bom.gov.au/fwo/IDQ60701/IDQ60701.94580.axf

JavaScript Object Notation format (JSON) in row-major order
http://www.bom.gov.au/fwo/IDQ60701/IDQ60701.94580.json

Data quality

Most of these data are generated automatically and are frequently updated. Quality checks on data are not normally performed. It is possible for incorrect values to appear. Refer to information at About Latest Weather Observations and please check the disclaimer before using these data.